Redford, Missouri
Current Conditions -  °F | °C
As of 1:55 AM on Monday 24 Nov 2014 (Local Time) from KFAM Reporting Station
Overcast Overcast  
Wind Chill: 54°   Ceiling: 1500
Heat Index: 54°   Visibility: 10mi
Dew Point: 50°   Wind: 15mph
Humidity: 88%   Direction: 250°WSW
Pressure: 29.28"   Gusts: 26mph
Location:  37.32°N, 90.9°W
Report Text: KFAM 240755Z AUTO 25013G23KT 10SM SCT010 BKN015 OVC026 12/10 A2928 RMK AO1
Loading
Personal Weather Stations






























Interactive Weather Map New forecast layout! Learn more

10-Day Weather Forecast

Advertisements
Track Severe Weather on mobile